sensor_id;sensor_type;location;lat;lon;timestamp;P1;durP1;ratioP1;P2;durP2;ratioP2
23680;SDS011;62915;50.832;4.462;2022-08-25T00:01:33;8.60;;;4.78;;
23680;SDS011;62915;50.832;4.462;2022-08-25T00:04:03;7.55;;;4.80;;
23680;SDS011;62915;50.832;4.462;2022-08-25T00:06:31;5.78;;;4.82;;
23680;SDS011;62915;50.832;4.462;2022-08-25T00:08:57;4.75;;;4.35;;
23680;SDS011;62915;50.832;4.462;2022-08-25T00:11:24;6.53;;;4.88;;
23680;SDS011;62915;50.832;4.462;2022-08-25T00:13:53;8.05;;;5.10;;
23680;SDS011;62915;50.832;4.462;2022-08-25T00:16:22;5.82;;;4.88;;
23680;SDS011;62915;50.832;4.462;2022-08-25T00:18:51;6.65;;;4.72;;
23680;SDS011;62915;50.832;4.462;2022-08-25T00:21:21;5.93;;;4.60;;
23680;SDS011;62915;50.832;4.462;2022-08-25T00:23:47;4.43;;;3.92;;
23680;SDS011;62915;50.832;4.462;2022-08-25T00:26:14;8.98;;;5.30;;
23680;SDS011;62915;50.832;4.462;2022-08-25T00:28:40;5.43;;;4.80;;
23680;SDS011;62915;50.832;4.462;2022-08-25T00:31:10;5.30;;;4.80;;
23680;SDS011;62915;50.832;4.462;2022-08-25T00:33:37;5.22;;;4.70;;
23680;SDS011;62915;50.832;4.462;2022-08-25T00:36:03;6.20;;;4.85;;
23680;SDS011;62915;50.832;4.462;2022-08-25T00:38:29;7.63;;;5.32;;
23680;SDS011;62915;50.832;4.462;2022-08-25T00:40:55;6.60;;;4.93;;
23680;SDS011;62915;50.832;4.462;2022-08-25T00:46:21;5.50;;;5.00;;
23680;SDS011;62915;50.832;4.462;2022-08-25T00:51:38;5.68;;;4.70;;
23680;SDS011;62915;50.832;4.462;2022-08-25T00:54:07;9.23;;;5.50;;
23680;SDS011;62915;50.832;4.462;2022-08-25T00:56:38;9.25;;;5.38;;
23680;SDS011;62915;50.832;4.462;2022-08-25T00:59:04;5.68;;;5.05;;
23680;SDS011;62915;50.832;4.462;2022-08-25T01:01:30;5.65;;;4.65;;
23680;SDS011;62915;50.832;4.462;2022-08-25T01:03:56;6.88;;;5.45;;
23680;SDS011;62915;50.832;4.462;2022-08-25T01:06:22;5.68;;;5.15;;
23680;SDS011;62915;50.832;4.462;2022-08-25T01:08:48;7.50;;;5.20;;
23680;SDS011;62915;50.832;4.462;2022-08-25T01:11:15;5.70;;;4.82;;
23680;SDS011;62915;50.832;4.462;2022-08-25T01:13:42;6.10;;;5.50;;
23680;SDS011;62915;50.832;4.462;2022-08-25T01:16:13;6.15;;;5.63;;
23680;SDS011;62915;50.832;4.462;2022-08-25T01:18:50;5.60;;;5.10;;
23680;SDS011;62915;50.832;4.462;2022-08-25T01:21:20;5.90;;;4.70;;
23680;SDS011;62915;50.832;4.462;2022-08-25T01:23:48;7.72;;;5.90;;
23680;SDS011;62915;50.832;4.462;2022-08-25T01:28:41;8.30;;;5.25;;
23680;SDS011;62915;50.832;4.462;2022-08-25T01:31:28;5.70;;;5.15;;
23680;SDS011;62915;50.832;4.462;2022-08-25T01:33:55;6.43;;;5.82;;
23680;SDS011;62915;50.832;4.462;2022-08-25T01:36:22;6.00;;;5.30;;
23680;SDS011;62915;50.832;4.462;2022-08-25T01:38:49;6.13;;;5.35;;
23680;SDS011;62915;50.832;4.462;2022-08-25T01:41:16;8.32;;;5.38;;
23680;SDS011;62915;50.832;4.462;2022-08-25T01:43:55;6.22;;;5.18;;
23680;SDS011;62915;50.832;4.462;2022-08-25T01:46:21;6.95;;;5.85;;
23680;SDS011;62915;50.832;4.462;2022-08-25T01:48:47;6.55;;;5.60;;
23680;SDS011;62915;50.832;4.462;2022-08-25T01:51:15;8.73;;;5.70;;
23680;SDS011;62915;50.832;4.462;2022-08-25T01:53:45;6.45;;;5.60;;
23680;SDS011;62915;50.832;4.462;2022-08-25T01:56:12;6.20;;;5.47;;
23680;SDS011;62915;50.832;4.462;2022-08-25T01:58:41;6.18;;;5.47;;
23680;SDS011;62915;50.832;4.462;2022-08-25T02:01:11;7.63;;;6.03;;
23680;SDS011;62915;50.832;4.462;2022-08-25T02:03:41;5.82;;;5.32;;
23680;SDS011;62915;50.832;4.462;2022-08-25T02:06:13;6.15;;;5.55;;
23680;SDS011;62915;50.832;4.462;2022-08-25T02:08:43;6.18;;;5.57;;
23680;SDS011;62915;50.832;4.462;2022-08-25T02:11:10;7.30;;;5.50;;
23680;SDS011;62915;50.832;4.462;2022-08-25T02:13:38;10.55;;;5.50;;
23680;SDS011;62915;50.832;4.462;2022-08-25T02:16:05;7.68;;;5.80;;
23680;SDS011;62915;50.832;4.462;2022-08-25T02:18:31;8.00;;;6.18;;
23680;SDS011;62915;50.832;4.462;2022-08-25T02:20:57;6.95;;;5.55;;
23680;SDS011;62915;50.832;4.462;2022-08-25T02:23:23;6.00;;;5.50;;
23680;SDS011;62915;50.832;4.462;2022-08-25T02:25:48;6.47;;;5.55;;
23680;SDS011;62915;50.832;4.462;2022-08-25T02:28:14;6.55;;;5.45;;
23680;SDS011;62915;50.832;4.462;2022-08-25T02:30:41;5.82;;;5.32;;
23680;SDS011;62915;50.832;4.462;2022-08-25T02:33:07;5.80;;;5.20;;
23680;SDS011;62915;50.832;4.462;2022-08-25T02:35:33;6.88;;;6.00;;
23680;SDS011;62915;50.832;4.462;2022-08-25T02:37:59;6.13;;;5.53;;
23680;SDS011;62915;50.832;4.462;2022-08-25T02:40:25;6.18;;;5.57;;
23680;SDS011;62915;50.832;4.462;2022-08-25T02:42:52;8.27;;;6.03;;
23680;SDS011;62915;50.832;4.462;2022-08-25T02:45:19;11.55;;;5.72;;
23680;SDS011;62915;50.832;4.462;2022-08-25T02:47:46;5.55;;;5.05;;
23680;SDS011;62915;50.832;4.462;2022-08-25T02:50:12;8.10;;;5.25;;
23680;SDS011;62915;50.832;4.462;2022-08-25T02:52:38;6.40;;;5.80;;
23680;SDS011;62915;50.832;4.462;2022-08-25T02:55:05;7.10;;;5.88;;
23680;SDS011;62915;50.832;4.462;2022-08-25T02:57:33;6.63;;;5.43;;
23680;SDS011;62915;50.832;4.462;2022-08-25T03:00:00;6.63;;;5.93;;
23680;SDS011;62915;50.832;4.462;2022-08-25T03:02:27;7.47;;;5.55;;
23680;SDS011;62915;50.832;4.462;2022-08-25T03:04:53;6.45;;;5.85;;
23680;SDS011;62915;50.832;4.462;2022-08-25T03:07:19;6.65;;;5.63;;
23680;SDS011;62915;50.832;4.462;2022-08-25T03:09:45;6.20;;;5.63;;
23680;SDS011;62915;50.832;4.462;2022-08-25T03:12:12;8.80;;;6.40;;
23680;SDS011;62915;50.832;4.462;2022-08-25T03:14:39;6.13;;;5.57;;
23680;SDS011;62915;50.832;4.462;2022-08-25T03:17:05;6.88;;;5.95;;
23680;SDS011;62915;50.832;4.462;2022-08-25T03:19:32;7.60;;;5.60;;
23680;SDS011;62915;50.832;4.462;2022-08-25T03:21:59;7.28;;;6.45;;
23680;SDS011;62915;50.832;4.462;2022-08-25T03:24:26;7.63;;;6.78;;
23680;SDS011;62915;50.832;4.462;2022-08-25T03:26:52;7.72;;;6.30;;
23680;SDS011;62915;50.832;4.462;2022-08-25T03:29:24;6.55;;;5.15;;
23680;SDS011;62915;50.832;4.462;2022-08-25T03:31:51;5.85;;;5.25;;
23680;SDS011;62915;50.832;4.462;2022-08-25T03:34:28;5.03;;;4.35;;
23680;SDS011;62915;50.832;4.462;2022-08-25T03:36:54;6.93;;;4.65;;
23680;SDS011;62915;50.832;4.462;2022-08-25T03:39:22;6.45;;;4.70;;
23680;SDS011;62915;50.832;4.462;2022-08-25T03:41:49;4.75;;;4.30;;
23680;SDS011;62915;50.832;4.462;2022-08-25T03:44:16;8.23;;;4.75;;
23680;SDS011;62915;50.832;4.462;2022-08-25T03:46:44;8.88;;;4.45;;
23680;SDS011;62915;50.832;4.462;2022-08-25T03:49:14;7.15;;;4.07;;
23680;SDS011;62915;50.832;4.462;2022-08-25T03:51:46;7.72;;;4.00;;
23680;SDS011;62915;50.832;4.462;2022-08-25T03:54:14;4.50;;;3.97;;
23680;SDS011;62915;50.832;4.462;2022-08-25T03:56:41;5.78;;;3.90;;
23680;SDS011;62915;50.832;4.462;2022-08-25T03:59:07;5.20;;;3.63;;
23680;SDS011;62915;50.832;4.462;2022-08-25T04:01:34;7.30;;;3.95;;
23680;SDS011;62915;50.832;4.462;2022-08-25T04:04:01;6.28;;;3.90;;
23680;SDS011;62915;50.832;4.462;2022-08-25T04:06:29;5.13;;;3.55;;
23680;SDS011;62915;50.832;4.462;2022-08-25T04:08:56;5.75;;;3.60;;
23680;SDS011;62915;50.832;4.462;2022-08-25T04:11:23;7.72;;;4.10;;
23680;SDS011;62915;50.832;4.462;2022-08-25T04:13:50;4.55;;;4.05;;
23680;SDS011;62915;50.832;4.462;2022-08-25T04:16:18;5.30;;;3.97;;
23680;SDS011;62915;50.832;4.462;2022-08-25T04:18:49;7.63;;;4.03;;
23680;SDS011;62915;50.832;4.462;2022-08-25T04:21:17;6.60;;;3.97;;
23680;SDS011;62915;50.832;4.462;2022-08-25T04:23:45;4.65;;;4.20;;
23680;SDS011;62915;50.832;4.462;2022-08-25T04:28:43;6.15;;;3.90;;
23680;SDS011;62915;50.832;4.462;2022-08-25T04:31:10;4.10;;;3.70;;
23680;SDS011;62915;50.832;4.462;2022-08-25T04:33:41;5.05;;;3.92;;
23680;SDS011;62915;50.832;4.462;2022-08-25T04:36:07;6.65;;;3.70;;
23680;SDS011;62915;50.832;4.462;2022-08-25T04:38:35;16.13;;;3.65;;
23680;SDS011;62915;50.832;4.462;2022-08-25T04:41:02;6.32;;;3.63;;
23680;SDS011;62915;50.832;4.462;2022-08-25T04:43:30;4.13;;;3.70;;
23680;SDS011;62915;50.832;4.462;2022-08-25T04:45:57;4.50;;;3.65;;
23680;SDS011;62915;50.832;4.462;2022-08-25T04:48:24;3.65;;;3.35;;
23680;SDS011;62915;50.832;4.462;2022-08-25T04:50:50;6.47;;;3.45;;
23680;SDS011;62915;50.832;4.462;2022-08-25T04:53:16;8.25;;;3.65;;
23680;SDS011;62915;50.832;4.462;2022-08-25T04:55:44;7.20;;;3.45;;
23680;SDS011;62915;50.832;4.462;2022-08-25T04:58:11;4.32;;;3.63;;
23680;SDS011;62915;50.832;4.462;2022-08-25T05:00:41;3.88;;;3.17;;
23680;SDS011;62915;50.832;4.462;2022-08-25T05:03:08;5.18;;;3.38;;
23680;SDS011;62915;50.832;4.462;2022-08-25T05:05:37;4.68;;;3.53;;
23680;SDS011;62915;50.832;4.462;2022-08-25T05:08:04;3.97;;;3.17;;
23680;SDS011;62915;50.832;4.462;2022-08-25T05:10:31;3.88;;;3.47;;
23680;SDS011;62915;50.832;4.462;2022-08-25T05:12:57;6.90;;;3.60;;
23680;SDS011;62915;50.832;4.462;2022-08-25T05:15:27;3.80;;;3.50;;
23680;SDS011;62915;50.832;4.462;2022-08-25T05:18:11;7.13;;;3.70;;
23680;SDS011;62915;50.832;4.462;2022-08-25T05:20:37;7.35;;;3.53;;
23680;SDS011;62915;50.832;4.462;2022-08-25T05:23:03;3.80;;;3.30;;
23680;SDS011;62915;50.832;4.462;2022-08-25T05:25:29;6.20;;;3.70;;
23680;SDS011;62915;50.832;4.462;2022-08-25T05:27:56;8.73;;;3.40;;
23680;SDS011;62915;50.832;4.462;2022-08-25T05:30:22;6.55;;;3.67;;
23680;SDS011;62915;50.832;4.462;2022-08-25T05:32:48;4.38;;;3.53;;
23680;SDS011;62915;50.832;4.462;2022-08-25T05:35:14;4.30;;;3.35;;
23680;SDS011;62915;50.832;4.462;2022-08-25T05:37:40;6.57;;;3.70;;
23680;SDS011;62915;50.832;4.462;2022-08-25T05:40:06;4.03;;;3.63;;
23680;SDS011;62915;50.832;4.462;2022-08-25T05:42:33;6.30;;;3.65;;
23680;SDS011;62915;50.832;4.462;2022-08-25T05:44:59;4.95;;;3.60;;
23680;SDS011;62915;50.832;4.462;2022-08-25T05:47:25;6.25;;;3.10;;
23680;SDS011;62915;50.832;4.462;2022-08-25T05:49:51;4.63;;;3.40;;
23680;SDS011;62915;50.832;4.462;2022-08-25T05:52:17;8.32;;;3.70;;
23680;SDS011;62915;50.832;4.462;2022-08-25T05:54:42;5.25;;;3.30;;
23680;SDS011;62915;50.832;4.462;2022-08-25T05:57:08;5.38;;;3.50;;
23680;SDS011;62915;50.832;4.462;2022-08-25T05:59:34;4.40;;;3.28;;
23680;SDS011;62915;50.832;4.462;2022-08-25T06:02:00;5.53;;;3.70;;
23680;SDS011;62915;50.832;4.462;2022-08-25T06:04:44;6.10;;;3.70;;
23680;SDS011;62915;50.832;4.462;2022-08-25T06:07:10;5.13;;;3.50;;
23680;SDS011;62915;50.832;4.462;2022-08-25T06:09:37;5.63;;;4.15;;
23680;SDS011;62915;50.832;4.462;2022-08-25T06:12:04;5.35;;;3.25;;
23680;SDS011;62915;50.832;4.462;2022-08-25T06:14:30;4.78;;;3.58;;
23680;SDS011;62915;50.832;4.462;2022-08-25T06:16:56;5.50;;;3.50;;
23680;SDS011;62915;50.832;4.462;2022-08-25T06:19:21;6.30;;;3.53;;
23680;SDS011;62915;50.832;4.462;2022-08-25T06:21:47;8.70;;;3.38;;
23680;SDS011;62915;50.832;4.462;2022-08-25T06:24:13;6.90;;;3.55;;
23680;SDS011;62915;50.832;4.462;2022-08-25T06:26:39;7.28;;;3.30;;
23680;SDS011;62915;50.832;4.462;2022-08-25T06:29:05;5.35;;;3.90;;
23680;SDS011;62915;50.832;4.462;2022-08-25T06:31:30;7.57;;;3.80;;
23680;SDS011;62915;50.832;4.462;2022-08-25T06:33:56;6.05;;;3.33;;
23680;SDS011;62915;50.832;4.462;2022-08-25T06:36:22;4.57;;;3.50;;
23680;SDS011;62915;50.832;4.462;2022-08-25T06:38:48;4.25;;;3.60;;
23680;SDS011;62915;50.832;4.462;2022-08-25T06:41:14;9.27;;;3.58;;
23680;SDS011;62915;50.832;4.462;2022-08-25T06:43:40;6.20;;;3.40;;
23680;SDS011;62915;50.832;4.462;2022-08-25T06:46:08;5.00;;;3.70;;
23680;SDS011;62915;50.832;4.462;2022-08-25T06:48:39;5.40;;;3.25;;
23680;SDS011;62915;50.832;4.462;2022-08-25T06:51:09;8.68;;;3.47;;
23680;SDS011;62915;50.832;4.462;2022-08-25T06:53:37;4.47;;;3.00;;
23680;SDS011;62915;50.832;4.462;2022-08-25T06:56:03;4.00;;;3.13;;
23680;SDS011;62915;50.832;4.462;2022-08-25T06:58:30;3.97;;;3.60;;
23680;SDS011;62915;50.832;4.462;2022-08-25T07:01:05;3.50;;;3.20;;
23680;SDS011;62915;50.832;4.462;2022-08-25T07:03:41;4.80;;;3.53;;
23680;SDS011;62915;50.832;4.462;2022-08-25T07:06:08;3.83;;;2.97;;
23680;SDS011;62915;50.832;4.462;2022-08-25T07:08:34;9.57;;;3.42;;
23680;SDS011;62915;50.832;4.462;2022-08-25T07:11:05;5.68;;;3.05;;
23680;SDS011;62915;50.832;4.462;2022-08-25T07:13:32;5.93;;;3.53;;
23680;SDS011;62915;50.832;4.462;2022-08-25T07:15:58;4.22;;;3.13;;
23680;SDS011;62915;50.832;4.462;2022-08-25T07:18:24;4.03;;;3.25;;
23680;SDS011;62915;50.832;4.462;2022-08-25T07:20:50;4.13;;;3.28;;
23680;SDS011;62915;50.832;4.462;2022-08-25T07:23:19;3.72;;;3.08;;
23680;SDS011;62915;50.832;4.462;2022-08-25T07:25:45;9.55;;;3.45;;
23680;SDS011;62915;50.832;4.462;2022-08-25T07:28:12;12.80;;;3.65;;
23680;SDS011;62915;50.832;4.462;2022-08-25T07:30:38;4.13;;;3.38;;
23680;SDS011;62915;50.832;4.462;2022-08-25T07:33:04;5.75;;;3.30;;
23680;SDS011;62915;50.832;4.462;2022-08-25T07:35:30;7.40;;;3.55;;
23680;SDS011;62915;50.832;4.462;2022-08-25T07:37:57;4.10;;;3.40;;
23680;SDS011;62915;50.832;4.462;2022-08-25T07:42:53;10.18;;;3.95;;
23680;SDS011;62915;50.832;4.462;2022-08-25T07:45:21;4.78;;;3.50;;
23680;SDS011;62915;50.832;4.462;2022-08-25T07:50:24;4.85;;;3.45;;
23680;SDS011;62915;50.832;4.462;2022-08-25T07:52:51;5.47;;;3.30;;
23680;SDS011;62915;50.832;4.462;2022-08-25T07:55:17;5.50;;;3.70;;
23680;SDS011;62915;50.832;4.462;2022-08-25T07:57:43;8.20;;;3.58;;
23680;SDS011;62915;50.832;4.462;2022-08-25T08:00:09;7.60;;;3.50;;
23680;SDS011;62915;50.832;4.462;2022-08-25T08:02:39;4.43;;;3.80;;
23680;SDS011;62915;50.832;4.462;2022-08-25T08:05:06;4.85;;;3.35;;
23680;SDS011;62915;50.832;4.462;2022-08-25T08:07:33;5.15;;;3.33;;
23680;SDS011;62915;50.832;4.462;2022-08-25T08:10:00;4.75;;;3.58;;
23680;SDS011;62915;50.832;4.462;2022-08-25T08:12:28;7.28;;;3.97;;
23680;SDS011;62915;50.832;4.462;2022-08-25T08:14:56;6.20;;;4.25;;
23680;SDS011;62915;50.832;4.462;2022-08-25T08:17:24;4.88;;;3.63;;
23680;SDS011;62915;50.832;4.462;2022-08-25T08:19:51;9.48;;;3.80;;
23680;SDS011;62915;50.832;4.462;2022-08-25T08:22:19;5.85;;;3.42;;
23680;SDS011;62915;50.832;4.462;2022-08-25T08:24:46;4.72;;;3.72;;
23680;SDS011;62915;50.832;4.462;2022-08-25T08:27:13;5.45;;;3.65;;
23680;SDS011;62915;50.832;4.462;2022-08-25T08:29:41;6.72;;;3.70;;
23680;SDS011;62915;50.832;4.462;2022-08-25T08:32:09;5.32;;;3.65;;
23680;SDS011;62915;50.832;4.462;2022-08-25T08:34:42;4.07;;;3.55;;
23680;SDS011;62915;50.832;4.462;2022-08-25T08:37:10;6.07;;;3.25;;
23680;SDS011;62915;50.832;4.462;2022-08-25T08:39:37;3.63;;;3.25;;
23680;SDS011;62915;50.832;4.462;2022-08-25T08:53:23;5.75;;;3.33;;
23680;SDS011;62915;50.832;4.462;2022-08-25T08:55:57;7.10;;;2.72;;
23680;SDS011;62915;50.832;4.462;2022-08-25T08:58:39;5.15;;;3.22;;
23680;SDS011;62915;50.832;4.462;2022-08-25T09:01:29;4.70;;;3.35;;
23680;SDS011;62915;50.832;4.462;2022-08-25T09:04:23;5.07;;;3.35;;
23680;SDS011;62915;50.832;4.462;2022-08-25T09:06:56;3.17;;;2.75;;
23680;SDS011;62915;50.832;4.462;2022-08-25T09:09:25;6.65;;;3.28;;
23680;SDS011;62915;50.832;4.462;2022-08-25T09:29:01;5.78;;;3.10;;
23680;SDS011;62915;50.832;4.462;2022-08-25T09:31:38;4.00;;;2.63;;
23680;SDS011;62915;50.832;4.462;2022-08-25T09:34:11;4.05;;;3.00;;
23680;SDS011;62915;50.832;4.462;2022-08-25T09:36:49;7.38;;;2.88;;
23680;SDS011;62915;50.832;4.462;2022-08-25T09:39:17;3.58;;;2.92;;
23680;SDS011;62915;50.832;4.462;2022-08-25T09:41:48;3.40;;;2.78;;
23680;SDS011;62915;50.832;4.462;2022-08-25T09:44:22;4.45;;;3.00;;
23680;SDS011;62915;50.832;4.462;2022-08-25T09:47:07;8.60;;;2.78;;
23680;SDS011;62915;50.832;4.462;2022-08-25T09:49:44;3.67;;;2.30;;
23680;SDS011;62915;50.832;4.462;2022-08-25T09:57:35;3.58;;;2.90;;
23680;SDS011;62915;50.832;4.462;2022-08-25T10:02:38;3.03;;;2.47;;
23680;SDS011;62915;50.832;4.462;2022-08-25T10:05:18;3.53;;;3.22;;
23680;SDS011;62915;50.832;4.462;2022-08-25T10:07:48;3.15;;;2.85;;
23680;SDS011;62915;50.832;4.462;2022-08-25T10:10:20;5.63;;;2.78;;
23680;SDS011;62915;50.832;4.462;2022-08-25T10:12:50;2.83;;;2.55;;
23680;SDS011;62915;50.832;4.462;2022-08-25T10:15:16;5.47;;;3.05;;
23680;SDS011;62915;50.832;4.462;2022-08-25T10:17:54;4.18;;;2.70;;
23680;SDS011;62915;50.832;4.462;2022-08-25T10:20:25;7.03;;;2.88;;
23680;SDS011;62915;50.832;4.462;2022-08-25T10:22:54;2.88;;;2.67;;
23680;SDS011;62915;50.832;4.462;2022-08-25T10:25:44;6.45;;;3.22;;
23680;SDS011;62915;50.832;4.462;2022-08-25T10:28:15;3.33;;;3.03;;
23680;SDS011;62915;50.832;4.462;2022-08-25T10:33:48;2.78;;;2.58;;
23680;SDS011;62915;50.832;4.462;2022-08-25T10:36:21;5.78;;;2.60;;
23680;SDS011;62915;50.832;4.462;2022-08-25T10:38:58;8.85;;;2.95;;
23680;SDS011;62915;50.832;4.462;2022-08-25T10:44:23;5.25;;;2.83;;
23680;SDS011;62915;50.832;4.462;2022-08-25T10:50:03;3.63;;;2.80;;
23680;SDS011;62915;50.832;4.462;2022-08-25T10:52:34;5.43;;;2.72;;
23680;SDS011;62915;50.832;4.462;2022-08-25T10:55:12;7.93;;;2.88;;
23680;SDS011;62915;50.832;4.462;2022-08-25T11:00:35;4.88;;;2.92;;
23680;SDS011;62915;50.832;4.462;2022-08-25T11:03:10;3.65;;;2.63;;
23680;SDS011;62915;50.832;4.462;2022-08-25T11:05:42;6.50;;;2.85;;
23680;SDS011;62915;50.832;4.462;2022-08-25T11:13:59;5.13;;;3.10;;
23680;SDS011;62915;50.832;4.462;2022-08-25T11:16:35;3.83;;;2.95;;
23680;SDS011;62915;50.832;4.462;2022-08-25T11:19:25;3.65;;;3.00;;
23680;SDS011;62915;50.832;4.462;2022-08-25T11:27:20;3.10;;;2.70;;
23680;SDS011;62915;50.832;4.462;2022-08-25T11:32:34;5.15;;;2.67;;
23680;SDS011;62915;50.832;4.462;2022-08-25T11:35:03;5.13;;;2.85;;
23680;SDS011;62915;50.832;4.462;2022-08-25T11:37:32;3.67;;;2.67;;
23680;SDS011;62915;50.832;4.462;2022-08-25T11:42:58;3.78;;;2.80;;
23680;SDS011;62915;50.832;4.462;2022-08-25T11:45:46;3.25;;;2.95;;
23680;SDS011;62915;50.832;4.462;2022-08-25T11:48:37;2.80;;;2.60;;
23680;SDS011;62915;50.832;4.462;2022-08-25T11:51:31;6.03;;;2.60;;
23680;SDS011;62915;50.832;4.462;2022-08-25T11:56:53;3.30;;;3.00;;
23680;SDS011;62915;50.832;4.462;2022-08-25T12:02:44;2.65;;;2.45;;
23680;SDS011;62915;50.832;4.462;2022-08-25T12:10:20;4.90;;;3.10;;
23680;SDS011;62915;50.832;4.462;2022-08-25T12:23:40;4.20;;;2.72;;
23680;SDS011;62915;50.832;4.462;2022-08-25T12:28:58;5.97;;;2.75;;
23680;SDS011;62915;50.832;4.462;2022-08-25T12:37:13;10.75;;;3.08;;
23680;SDS011;62915;50.832;4.462;2022-08-25T12:40:24;4.10;;;3.03;;
23680;SDS011;62915;50.832;4.462;2022-08-25T12:42:37;6.75;;;3.17;;
23680;SDS011;62915;50.832;4.462;2022-08-25T12:45:13;4.07;;;2.90;;
23680;SDS011;62915;50.832;4.462;2022-08-25T12:47:48;3.33;;;3.10;;
23680;SDS011;62915;50.832;4.462;2022-08-25T12:50:28;3.20;;;2.90;;
23680;SDS011;62915;50.832;4.462;2022-08-25T12:55:37;5.55;;;3.17;;
23680;SDS011;62915;50.832;4.462;2022-08-25T12:58:06;8.02;;;3.47;;
23680;SDS011;62915;50.832;4.462;2022-08-25T13:11:53;4.95;;;4.05;;
23680;SDS011;62915;50.832;4.462;2022-08-25T13:14:37;3.65;;;3.13;;
23680;SDS011;62915;50.832;4.462;2022-08-25T13:17:07;3.33;;;3.03;;
23680;SDS011;62915;50.832;4.462;2022-08-25T13:19:34;4.88;;;2.97;;
23680;SDS011;62915;50.832;4.462;2022-08-25T13:22:22;3.35;;;2.85;;
23680;SDS011;62915;50.832;4.462;2022-08-25T13:24:47;5.82;;;3.30;;
23680;SDS011;62915;50.832;4.462;2022-08-25T13:27:24;5.43;;;3.08;;
23680;SDS011;62915;50.832;4.462;2022-08-25T13:29:53;5.75;;;3.40;;
23680;SDS011;62915;50.832;4.462;2022-08-25T13:32:26;5.25;;;3.13;;
23680;SDS011;62915;50.832;4.462;2022-08-25T13:37:47;5.53;;;3.22;;
23680;SDS011;62915;50.832;4.462;2022-08-25T13:42:54;3.63;;;3.20;;
23680;SDS011;62915;50.832;4.462;2022-08-25T13:45:24;3.80;;;2.88;;
23680;SDS011;62915;50.832;4.462;2022-08-25T13:47:52;4.10;;;3.33;;
23680;SDS011;62915;50.832;4.462;2022-08-25T13:50:28;5.35;;;3.22;;
23680;SDS011;62915;50.832;4.462;2022-08-25T13:53:04;6.13;;;3.00;;
23680;SDS011;62915;50.832;4.462;2022-08-25T13:55:36;4.22;;;3.30;;
23680;SDS011;62915;50.832;4.462;2022-08-25T13:58:16;3.65;;;3.08;;
23680;SDS011;62915;50.832;4.462;2022-08-25T14:01:07;4.25;;;3.17;;
23680;SDS011;62915;50.832;4.462;2022-08-25T14:03:39;5.85;;;3.25;;
23680;SDS011;62915;50.832;4.462;2022-08-25T14:08:40;6.10;;;3.40;;
23680;SDS011;62915;50.832;4.462;2022-08-25T14:11:24;3.07;;;2.73;;
23680;SDS011;62915;50.832;4.462;2022-08-25T14:13:58;3.70;;;3.40;;
23680;SDS011;62915;50.832;4.462;2022-08-25T14:16:26;3.42;;;3.13;;
23680;SDS011;62915;50.832;4.462;2022-08-25T14:18:53;5.03;;;3.40;;
23680;SDS011;62915;50.832;4.462;2022-08-25T14:21:24;4.53;;;3.22;;
23680;SDS011;62915;50.832;4.462;2022-08-25T14:23:52;5.45;;;4.82;;
23680;SDS011;62915;50.832;4.462;2022-08-25T14:26:19;11.02;;;5.28;;
23680;SDS011;62915;50.832;4.462;2022-08-25T14:28:45;9.02;;;5.90;;
23680;SDS011;62915;50.832;4.462;2022-08-25T14:31:13;13.02;;;5.90;;
23680;SDS011;62915;50.832;4.462;2022-08-25T14:33:44;13.20;;;5.55;;
23680;SDS011;62915;50.832;4.462;2022-08-25T14:36:27;13.13;;;5.65;;
23680;SDS011;62915;50.832;4.462;2022-08-25T14:38:54;13.65;;;6.38;;
23680;SDS011;62915;50.832;4.462;2022-08-25T14:41:20;8.63;;;5.65;;
23680;SDS011;62915;50.832;4.462;2022-08-25T14:43:47;9.30;;;5.00;;
23680;SDS011;62915;50.832;4.462;2022-08-25T14:46:20;11.10;;;5.35;;
23680;SDS011;62915;50.832;4.462;2022-08-25T14:48:48;10.45;;;4.97;;
23680;SDS011;62915;50.832;4.462;2022-08-25T14:51:19;11.57;;;5.43;;
23680;SDS011;62915;50.832;4.462;2022-08-25T14:53:46;6.55;;;4.90;;
23680;SDS011;62915;50.832;4.462;2022-08-25T14:56:12;7.88;;;4.90;;
23680;SDS011;62915;50.832;4.462;2022-08-25T14:58:38;10.68;;;5.35;;
23680;SDS011;62915;50.832;4.462;2022-08-25T15:01:05;8.05;;;5.00;;
23680;SDS011;62915;50.832;4.462;2022-08-25T15:03:35;8.55;;;4.90;;
23680;SDS011;62915;50.832;4.462;2022-08-25T15:06:03;8.30;;;5.32;;
23680;SDS011;62915;50.832;4.462;2022-08-25T15:08:30;8.77;;;4.85;;
23680;SDS011;62915;50.832;4.462;2022-08-25T15:11:14;8.05;;;4.60;;
23680;SDS011;62915;50.832;4.462;2022-08-25T15:13:40;5.72;;;4.90;;
23680;SDS011;62915;50.832;4.462;2022-08-25T15:16:08;13.52;;;5.05;;
23680;SDS011;62915;50.832;4.462;2022-08-25T15:18:34;5.95;;;4.78;;
23680;SDS011;62915;50.832;4.462;2022-08-25T15:21:00;12.75;;;4.97;;
23680;SDS011;62915;50.832;4.462;2022-08-25T15:23:26;10.57;;;5.25;;
23680;SDS011;62915;50.832;4.462;2022-08-25T15:25:53;9.95;;;5.20;;
23680;SDS011;62915;50.832;4.462;2022-08-25T15:28:20;8.85;;;5.25;;
23680;SDS011;62915;50.832;4.462;2022-08-25T15:30:46;12.57;;;5.90;;
23680;SDS011;62915;50.832;4.462;2022-08-25T15:33:12;13.27;;;6.32;;
23680;SDS011;62915;50.832;4.462;2022-08-25T15:35:38;9.13;;;5.60;;
23680;SDS011;62915;50.832;4.462;2022-08-25T15:38:05;8.57;;;5.53;;
23680;SDS011;62915;50.832;4.462;2022-08-25T15:40:31;9.88;;;7.28;;
23680;SDS011;62915;50.832;4.462;2022-08-25T15:42:58;14.15;;;7.43;;
23680;SDS011;62915;50.832;4.462;2022-08-25T15:45:24;9.23;;;8.23;;
23680;SDS011;62915;50.832;4.462;2022-08-25T15:47:50;10.13;;;7.85;;
23680;SDS011;62915;50.832;4.462;2022-08-25T15:50:17;14.75;;;10.10;;
23680;SDS011;62915;50.832;4.462;2022-08-25T15:52:45;12.05;;;9.55;;
23680;SDS011;62915;50.832;4.462;2022-08-25T15:55:11;13.38;;;8.15;;
23680;SDS011;62915;50.832;4.462;2022-08-25T15:57:38;11.55;;;8.73;;
23680;SDS011;62915;50.832;4.462;2022-08-25T16:00:06;10.82;;;9.25;;
23680;SDS011;62915;50.832;4.462;2022-08-25T16:02:35;13.50;;;9.18;;
23680;SDS011;62915;50.832;4.462;2022-08-25T16:05:01;9.80;;;8.43;;
23680;SDS011;62915;50.832;4.462;2022-08-25T16:07:27;15.40;;;9.07;;
23680;SDS011;62915;50.832;4.462;2022-08-25T16:09:56;12.80;;;11.10;;
23680;SDS011;62915;50.832;4.462;2022-08-25T16:12:23;14.57;;;9.60;;
23680;SDS011;62915;50.832;4.462;2022-08-25T16:14:49;14.48;;;10.40;;
23680;SDS011;62915;50.832;4.462;2022-08-25T16:17:17;16.55;;;11.35;;
23680;SDS011;62915;50.832;4.462;2022-08-25T16:19:43;16.95;;;11.43;;
23680;SDS011;62915;50.832;4.462;2022-08-25T16:22:09;21.23;;;14.93;;
23680;SDS011;62915;50.832;4.462;2022-08-25T16:24:37;14.73;;;12.52;;
23680;SDS011;62915;50.832;4.462;2022-08-25T16:27:04;15.35;;;13.73;;
23680;SDS011;62915;50.832;4.462;2022-08-25T16:29:31;16.95;;;13.30;;
23680;SDS011;62915;50.832;4.462;2022-08-25T16:31:59;17.80;;;13.20;;
23680;SDS011;62915;50.832;4.462;2022-08-25T16:34:25;19.58;;;12.88;;
23680;SDS011;62915;50.832;4.462;2022-08-25T16:36:51;15.40;;;13.15;;
23680;SDS011;62915;50.832;4.462;2022-08-25T16:39:18;16.85;;;13.80;;
23680;SDS011;62915;50.832;4.462;2022-08-25T16:41:45;15.70;;;12.30;;
23680;SDS011;62915;50.832;4.462;2022-08-25T16:44:11;14.82;;;12.82;;
23680;SDS011;62915;50.832;4.462;2022-08-25T16:46:37;14.52;;;12.25;;
23680;SDS011;62915;50.832;4.462;2022-08-25T16:49:04;15.90;;;13.75;;
23680;SDS011;62915;50.832;4.462;2022-08-25T16:51:30;18.70;;;13.52;;
23680;SDS011;62915;50.832;4.462;2022-08-25T16:53:56;12.70;;;11.32;;
23680;SDS011;62915;50.832;4.462;2022-08-25T16:56:41;18.17;;;12.05;;
23680;SDS011;62915;50.832;4.462;2022-08-25T16:59:07;15.18;;;10.93;;
23680;SDS011;62915;50.832;4.462;2022-08-25T17:01:36;14.95;;;10.38;;
23680;SDS011;62915;50.832;4.462;2022-08-25T17:04:03;11.93;;;10.73;;
23680;SDS011;62915;50.832;4.462;2022-08-25T17:06:32;14.07;;;10.50;;
23680;SDS011;62915;50.832;4.462;2022-08-25T17:08:59;12.40;;;10.65;;
23680;SDS011;62915;50.832;4.462;2022-08-25T17:11:26;15.07;;;11.13;;